Time;durP1;ratioP1;P1;durP2;ratioP2;P2;SDS_P1;SDS_P2;PMS_P1;PMS_P2;Temp;Humidity;BMP_temperature;BMP_pressure;BME280_temperature;BME280_humidity;BME280_pressure;Samples;Min_cycle;Max_cycle;Signal;HPM_P1;HPM_P2
2022/01/06 00:01:38;;;;;;;;;;;4.80;84.50;;;;;;5075829;28;19916;-65
2022/01/06 00:04:04;;;;;;;;;;;4.90;84.40;;;;;;5057677;28;19912;-63
2022/01/06 00:06:30;;;;;;;;;;;4.90;84.50;;;;;;5075448;28;19920;-58
2022/01/06 00:08:57;;;;;;;;;;;4.90;83.90;;;;;;5075454;28;19954;-62
2022/01/06 00:11:24;;;;;;;;;;;5.00;83.10;;;;;;5075450;28;19916;-60
2022/01/06 00:13:57;;;;;;;;;;;4.90;83.50;;;;;;5075675;28;19955;-56
2022/01/06 00:24:14;;;;;;;;;;;5.00;83.60;;;;;;5075682;28;19915;-59
2022/01/06 00:26:40;;;;;;;;;;;5.00;83.30;;;;;;5075146;28;20268;-57
2022/01/06 00:29:06;;;;;;;;;;;5.00;83.60;;;;;;5075315;28;19962;-62
2022/01/06 00:31:32;;;;;;;;;;;5.20;82.70;;;;;;5075273;28;20261;-62
2022/01/06 00:33:58;;;;;;;;;;;5.30;82.40;;;;;;5075068;28;20293;-62
2022/01/06 00:36:23;;;;;;;;;;;5.40;82.00;;;;;;5075077;28;19912;-57
2022/01/06 00:38:49;;;;;;;;;;;5.60;79.70;;;;;;5074877;28;20284;-61
2022/01/06 00:41:14;;;;;;;;;;;5.70;79.30;;;;;;5075274;28;19908;-63
2022/01/06 00:43:40;;;;;;;;;;;5.80;79.70;;;;;;5057009;28;19916;-58
2022/01/06 00:46:06;;;;;;;;;;;5.80;79.10;;;;;;5074861;28;20283;-58
2022/01/06 00:48:31;;;;;;;;;;;5.70;79.50;;;;;;5074995;28;20417;-59
2022/01/06 00:50:57;;;;;;;;;;;5.70;78.60;;;;;;5074639;28;20424;-61
2022/01/06 00:53:22;;;;;;;;;;;5.80;78.30;;;;;;5056928;28;19913;-59
2022/01/06 00:55:48;;;;;;;;;;;5.80;77.70;;;;;;5056739;28;19912;-58
2022/01/06 00:58:14;;;;;;;;;;;5.90;77.60;;;;;;5074757;28;19908;-59
2022/01/06 01:00:40;;;;;;;;;;;5.80;78.00;;;;;;5074580;28;20413;-61
2022/01/06 01:03:08;;;;;;;;;;;5.60;78.20;;;;;;5074383;28;19916;-56
2022/01/06 01:05:34;;;;;;;;;;;5.60;78.50;;;;;;5056683;28;19915;-61
2022/01/06 01:07:59;;;;;;;;;;;5.60;78.60;;;;;;5074561;28;20313;-60
2022/01/06 01:10:25;;;;;;;;;;;5.50;79.10;;;;;;5056321;28;20345;-61
2022/01/06 01:12:50;;;;;;;;;;;5.60;78.20;;;;;;5056417;28;20015;-58
2022/01/06 01:15:20;;;;;;;;;;;5.60;78.60;;;;;;5074514;28;19962;-58
2022/01/06 01:17:49;;;;;;;;;;;5.70;78.40;;;;;;5074287;28;19909;-59
2022/01/06 01:20:16;;;;;;;;;;;5.80;78.20;;;;;;5073745;28;20275;-58
2022/01/06 01:22:41;;;;;;;;;;;5.90;78.30;;;;;;5074160;28;20001;-58
2022/01/06 01:25:07;;;;;;;;;;;5.80;77.20;;;;;;5074149;28;20372;-58
2022/01/06 01:27:38;;;;;;;;;;;5.90;78.40;;;;;;5074100;28;19917;-59
2022/01/06 01:30:09;;;;;;;;;;;5.80;77.80;;;;;;5073864;28;19920;-57
2022/01/06 01:32:36;;;;;;;;;;;5.80;77.90;;;;;;5073983;28;20009;-57
2022/01/06 01:35:03;;;;;;;;;;;5.70;76.60;;;;;;5073892;28;19958;-62
2022/01/06 01:37:29;;;;;;;;;;;5.70;77.40;;;;;;5073772;28;20418;-66
2022/01/06 01:39:55;;;;;;;;;;;5.80;77.80;;;;;;5073724;28;19951;-68
2022/01/06 01:42:21;;;;;;;;;;;5.90;77.60;;;;;;5074018;28;19912;-67
2022/01/06 01:44:48;;;;;;;;;;;5.80;78.20;;;;;;5073819;28;19962;-64
2022/01/06 01:47:15;;;;;;;;;;;5.80;78.70;;;;;;5055885;28;20331;-69
2022/01/06 01:49:53;;;;;;;;;;;5.80;78.30;;;;;;5073683;28;19916;-67
2022/01/06 01:52:18;;;;;;;;;;;5.80;77.60;;;;;;5073775;28;19966;-68
2022/01/06 01:54:44;;;;;;;;;;;5.90;78.50;;;;;;5073781;28;19909;-68
2022/01/06 01:57:09;;;;;;;;;;;5.90;78.10;;;;;;5073528;28;20383;-68
2022/01/06 01:59:35;;;;;;;;;;;5.90;77.60;;;;;;5073391;28;20003;-65
2022/01/06 02:02:01;;;;;;;;;;;5.90;77.70;;;;;;5074176;28;20411;-66
2022/01/06 02:04:26;;;;;;;;;;;5.80;78.30;;;;;;5073412;28;19908;-68
2022/01/06 02:06:52;;;;;;;;;;;6.00;78.50;;;;;;5073508;28;19908;-67
2022/01/06 02:09:17;;;;;;;;;;;5.70;79.00;;;;;;5073321;28;19955;-66
2022/01/06 02:11:43;;;;;;;;;;;5.70;79.80;;;;;;5073524;28;19913;-68
2022/01/06 02:14:08;;;;;;;;;;;5.70;79.60;;;;;;5073241;28;19909;-67
2022/01/06 02:16:34;;;;;;;;;;;5.70;78.90;;;;;;5073378;28;19915;-65
2022/01/06 02:19:00;;;;;;;;;;;5.80;78.10;;;;;;5073446;28;19947;-68
2022/01/06 02:21:25;;;;;;;;;;;5.80;78.30;;;;;;5073415;28;20015;-68
2022/01/06 02:23:51;;;;;;;;;;;5.80;78.90;;;;;;5073155;28;19966;-66
2022/01/06 02:26:16;;;;;;;;;;;5.80;79.10;;;;;;5073971;28;20356;-64
2022/01/06 02:28:43;;;;;;;;;;;5.40;80.00;;;;;;5077087;28;19908;-65
2022/01/06 02:31:08;;;;;;;;;;;5.50;80.20;;;;;;5073065;28;20367;-67
2022/01/06 02:33:35;;;;;;;;;;;5.50;80.00;;;;;;5073192;28;19909;-66
2022/01/06 02:36:00;;;;;;;;;;;5.50;80.50;;;;;;5073036;28;20070;-61
2022/01/06 02:38:26;;;;;;;;;;;5.50;80.60;;;;;;5073029;28;19920;-67
2022/01/06 02:40:52;;;;;;;;;;;5.30;81.00;;;;;;5073025;28;19943;-67
2022/01/06 02:43:19;;;;;;;;;;;5.30;81.10;;;;;;5073034;28;20276;-62
2022/01/06 02:45:45;;;;;;;;;;;5.30;81.30;;;;;;5073115;28;20360;-65
2022/01/06 02:48:11;;;;;;;;;;;5.30;81.20;;;;;;5073081;28;19912;-60
2022/01/06 02:50:38;;;;;;;;;;;5.30;81.00;;;;;;5073209;28;19921;-66
2022/01/06 02:53:05;;;;;;;;;;;5.40;81.60;;;;;;5073039;28;20382;-60
2022/01/06 02:55:31;;;;;;;;;;;5.40;80.60;;;;;;5073283;28;20186;-67
2022/01/06 02:57:56;;;;;;;;;;;5.40;80.60;;;;;;5073103;28;19909;-67
2022/01/06 03:00:22;;;;;;;;;;;5.40;80.30;;;;;;5072880;28;19909;-65
2022/01/06 03:02:48;;;;;;;;;;;5.30;81.00;;;;;;5072941;28;19962;-66
2022/01/06 03:05:15;;;;;;;;;;;5.20;81.90;;;;;;5072724;28;19970;-66
2022/01/06 03:07:41;;;;;;;;;;;5.20;81.70;;;;;;5054984;28;20240;-67
2022/01/06 03:10:09;;;;;;;;;;;5.20;81.80;;;;;;5072713;28;19924;-65
2022/01/06 03:12:41;;;;;;;;;;;5.20;80.50;;;;;;5072609;28;20344;-65
2022/01/06 03:15:11;;;;;;;;;;;5.20;80.40;;;;;;5072715;28;19912;-64
2022/01/06 03:17:37;;;;;;;;;;;5.30;79.90;;;;;;5072669;28;19915;-66
2022/01/06 03:20:06;;;;;;;;;;;5.30;80.10;;;;;;5072740;28;19908;-59
2022/01/06 03:22:32;;;;;;;;;;;5.40;80.30;;;;;;5072605;28;19908;-59
2022/01/06 03:24:57;;;;;;;;;;;5.30;79.90;;;;;;5072536;28;20257;-58
2022/01/06 03:27:23;;;;;;;;;;;5.20;79.90;;;;;;5072580;28;19908;-56
2022/01/06 03:29:50;;;;;;;;;;;5.30;80.30;;;;;;5072522;28;19967;-61
2022/01/06 03:32:16;;;;;;;;;;;5.30;80.00;;;;;;5072721;28;19916;-61
2022/01/06 03:34:41;;;;;;;;;;;5.30;79.80;;;;;;5072549;28;19920;-57
2022/01/06 03:37:07;;;;;;;;;;;5.50;78.10;;;;;;5072526;28;19930;-58
2022/01/06 03:39:33;;;;;;;;;;;5.50;79.00;;;;;;5072358;28;19927;-60
2022/01/06 03:41:59;;;;;;;;;;;5.40;78.70;;;;;;5054860;28;20011;-58
2022/01/06 03:44:24;;;;;;;;;;;5.40;78.00;;;;;;5076046;28;19908;-55
2022/01/06 03:46:50;;;;;;;;;;;5.50;78.20;;;;;;5076086;28;19909;-56
2022/01/06 03:49:15;;;;;;;;;;;5.40;78.50;;;;;;5075945;28;19918;-61
2022/01/06 03:51:41;;;;;;;;;;;5.50;77.60;;;;;;5076083;28;19962;-58
2022/01/06 03:54:07;;;;;;;;;;;5.50;77.30;;;;;;5075682;28;19920;-59
2022/01/06 03:56:32;;;;;;;;;;;5.50;77.10;;;;;;5075773;28;19978;-58
2022/01/06 03:58:58;;;;;;;;;;;5.50;77.60;;;;;;5075993;28;19915;-59
2022/01/06 04:01:24;;;;;;;;;;;5.50;76.60;;;;;;5075672;28;20351;-57
2022/01/06 04:03:49;;;;;;;;;;;5.50;77.50;;;;;;5075704;28;19915;-58
2022/01/06 04:06:15;;;;;;;;;;;5.50;76.80;;;;;;5075695;28;19991;-66
2022/01/06 04:08:41;;;;;;;;;;;5.70;76.30;;;;;;5075689;28;20284;-59
2022/01/06 04:11:07;;;;;;;;;;;5.60;76.30;;;;;;5075511;28;19920;-58
2022/01/06 04:13:34;;;;;;;;;;;5.60;76.10;;;;;;5075521;28;19943;-57
2022/01/06 04:16:02;;;;;;;;;;;5.50;76.80;;;;;;5075671;28;19923;-58
2022/01/06 04:18:28;;;;;;;;;;;5.50;76.50;;;;;;5075505;28;19909;-59
2022/01/06 04:20:53;;;;;;;;;;;5.50;76.40;;;;;;5075465;28;19948;-58
2022/01/06 04:23:19;;;;;;;;;;;5.70;76.10;;;;;;5075262;28;20012;-57
2022/01/06 04:25:44;;;;;;;;;;;5.70;74.90;;;;;;5075414;28;19915;-58
2022/01/06 04:28:10;;;;;;;;;;;5.60;75.70;;;;;;5075336;28;19908;-57
2022/01/06 04:30:35;;;;;;;;;;;5.60;75.80;;;;;;5075136;28;19982;-57
2022/01/06 04:33:01;;;;;;;;;;;5.70;75.90;;;;;;5075088;28;19916;-59
2022/01/06 04:35:27;;;;;;;;;;;5.80;75.40;;;;;;5075289;28;19995;-58
2022/01/06 04:37:52;;;;;;;;;;;5.80;75.40;;;;;;5074752;28;19990;-58
2022/01/06 04:40:18;;;;;;;;;;;5.70;75.60;;;;;;5075266;28;20198;-59
2022/01/06 04:42:43;;;;;;;;;;;5.70;75.50;;;;;;5075201;28;20266;-58
2022/01/06 04:45:09;;;;;;;;;;;5.70;75.30;;;;;;5074906;28;19908;-58
2022/01/06 04:47:35;;;;;;;;;;;5.80;74.20;;;;;;5075116;28;19913;-58
2022/01/06 04:50:00;;;;;;;;;;;5.80;73.80;;;;;;5074659;28;19920;-61
2022/01/06 04:52:26;;;;;;;;;;;5.90;73.70;;;;;;5074900;28;19948;-58
2022/01/06 04:54:51;;;;;;;;;;;5.80;73.90;;;;;;5074724;28;19963;-57
2022/01/06 04:57:17;;;;;;;;;;;5.80;74.10;;;;;;5074700;28;19915;-57
2022/01/06 04:59:43;;;;;;;;;;;5.70;74.50;;;;;;5074717;28;19948;-57
2022/01/06 05:02:09;;;;;;;;;;;5.70;74.50;;;;;;5074730;28;20018;-56
2022/01/06 05:04:34;;;;;;;;;;;5.70;74.50;;;;;;5074402;28;20434;-56
2022/01/06 05:07:00;;;;;;;;;;;5.70;74.50;;;;;;5074474;28;20010;-56
2022/01/06 05:09:25;;;;;;;;;;;5.70;74.70;;;;;;5074257;28;19909;-56
2022/01/06 05:11:51;;;;;;;;;;;5.70;74.60;;;;;;5074437;28;19916;-58
2022/01/06 05:14:16;;;;;;;;;;;5.70;73.30;;;;;;5074363;28;20049;-60
2022/01/06 05:16:42;;;;;;;;;;;5.70;73.70;;;;;;5074249;28;19916;-58
2022/01/06 05:19:08;;;;;;;;;;;5.80;73.30;;;;;;5074438;28;19919;-58
2022/01/06 05:21:34;;;;;;;;;;;5.80;73.00;;;;;;5074119;28;19908;-58
2022/01/06 05:24:00;;;;;;;;;;;5.80;73.30;;;;;;5075152;28;19999;-57
2022/01/06 05:26:26;;;;;;;;;;;5.90;73.00;;;;;;5077858;28;19909;-56
2022/01/06 05:28:51;;;;;;;;;;;5.90;72.40;;;;;;5076266;28;19912;-58
2022/01/06 05:31:17;;;;;;;;;;;5.90;72.60;;;;;;5075197;28;20396;-57
2022/01/06 05:33:42;;;;;;;;;;;5.90;72.20;;;;;;5073960;28;19908;-57
2022/01/06 05:36:08;;;;;;;;;;;5.90;72.50;;;;;;5055730;28;19913;-56
2022/01/06 05:38:33;;;;;;;;;;;5.80;73.30;;;;;;5073896;28;19920;-57
2022/01/06 05:40:59;;;;;;;;;;;5.90;72.90;;;;;;5073934;28;20308;-58
2022/01/06 05:43:25;;;;;;;;;;;5.80;72.60;;;;;;5073898;28;19933;-57
2022/01/06 05:45:53;;;;;;;;;;;5.80;72.30;;;;;;5073852;28;20268;-57
2022/01/06 05:48:19;;;;;;;;;;;5.90;71.60;;;;;;5073618;28;19986;-57
2022/01/06 05:50:48;;;;;;;;;;;6.00;70.60;;;;;;5073666;28;19969;-57
2022/01/06 05:53:14;;;;;;;;;;;5.90;71.40;;;;;;5073238;28;19971;-57
2022/01/06 05:55:40;;;;;;;;;;;5.90;71.10;;;;;;5073776;28;19908;-57
2022/01/06 05:58:05;;;;;;;;;;;5.80;71.70;;;;;;5073983;28;19909;-57
2022/01/06 06:00:31;;;;;;;;;;;5.90;71.00;;;;;;5073529;28;20007;-59
2022/01/06 06:02:56;;;;;;;;;;;5.90;70.40;;;;;;5073410;28;19943;-57
2022/01/06 06:05:22;;;;;;;;;;;5.90;70.90;;;;;;5073051;28;19972;-57
2022/01/06 06:07:47;;;;;;;;;;;5.90;70.70;;;;;;5073658;28;20276;-57
2022/01/06 06:10:13;;;;;;;;;;;5.90;70.10;;;;;;5073503;28;20360;-57
2022/01/06 06:12:38;;;;;;;;;;;6.10;68.70;;;;;;5073436;28;20375;-57
2022/01/06 06:15:04;;;;;;;;;;;6.10;69.10;;;;;;5073480;28;19909;-57
2022/01/06 06:17:30;;;;;;;;;;;6.10;69.20;;;;;;5073338;28;19915;-59
2022/01/06 06:19:55;;;;;;;;;;;6.10;68.50;;;;;;5073254;28;19951;-60
2022/01/06 06:22:21;;;;;;;;;;;6.10;68.90;;;;;;5073491;28;19919;-65
2022/01/06 06:24:46;;;;;;;;;;;6.10;69.00;;;;;;5073263;28;19909;-63
2022/01/06 06:27:12;;;;;;;;;;;6.00;68.70;;;;;;5073448;28;20042;-60
2022/01/06 06:29:38;;;;;;;;;;;6.00;68.50;;;;;;5073314;28;19923;-66
2022/01/06 06:32:04;;;;;;;;;;;6.10;69.20;;;;;;5073544;28;20463;-60
2022/01/06 06:34:29;;;;;;;;;;;6.00;69.20;;;;;;5073032;28;19912;-59
2022/01/06 06:36:55;;;;;;;;;;;6.00;69.40;;;;;;5073100;28;20579;-60
2022/01/06 06:39:21;;;;;;;;;;;6.10;67.90;;;;;;5073168;28;19925;-61
2022/01/06 06:41:46;;;;;;;;;;;6.10;67.90;;;;;;5073135;28;19914;-58
2022/01/06 06:44:12;;;;;;;;;;;6.20;67.90;;;;;;5072949;28;19913;-58
2022/01/06 06:46:37;;;;;;;;;;;6.30;67.30;;;;;;5073276;28;19909;-58
2022/01/06 06:49:03;;;;;;;;;;;6.40;66.70;;;;;;5055082;28;20395;-57
2022/01/06 06:51:29;;;;;;;;;;;6.30;67.20;;;;;;5073034;28;19923;-58
2022/01/06 06:53:54;;;;;;;;;;;6.30;66.90;;;;;;5072998;28;20307;-58
2022/01/06 06:56:20;;;;;;;;;;;6.30;66.60;;;;;;5072820;28;19952;-58
2022/01/06 06:58:46;;;;;;;;;;;6.30;66.20;;;;;;5073169;28;19916;-61
2022/01/06 07:01:11;;;;;;;;;;;6.30;66.70;;;;;;5055105;28;19956;-61
2022/01/06 07:03:37;;;;;;;;;;;6.30;65.60;;;;;;5072822;28;20083;-61
2022/01/06 07:06:03;;;;;;;;;;;6.40;65.30;;;;;;5072777;28;20332;-63
2022/01/06 07:08:28;;;;;;;;;;;6.40;65.50;;;;;;5072832;28;20011;-65
2022/01/06 07:10:54;;;;;;;;;;;6.50;65.50;;;;;;5072931;28;19916;-63
2022/01/06 07:13:20;;;;;;;;;;;6.50;65.00;;;;;;5073113;28;19909;-64
2022/01/06 07:15:46;;;;;;;;;;;6.60;65.40;;;;;;5072642;28;20046;-65
2022/01/06 07:18:11;;;;;;;;;;;6.80;65.00;;;;;;5075027;28;19912;-67
2022/01/06 07:20:37;;;;;;;;;;;6.80;64.00;;;;;;5076423;28;20271;-65
2022/01/06 07:23:03;;;;;;;;;;;6.80;63.40;;;;;;5076372;28;19909;-65
2022/01/06 07:25:28;;;;;;;;;;;6.80;63.20;;;;;;5076386;28;19916;-66
2022/01/06 07:27:54;;;;;;;;;;;6.80;63.20;;;;;;5076060;28;20004;-68
2022/01/06 07:30:20;;;;;;;;;;;6.90;62.80;;;;;;5058329;28;19959;-60
2022/01/06 07:32:47;;;;;;;;;;;7.60;80.10;;;;;;5076137;28;20352;-64
2022/01/06 07:35:12;;;;;;;;;;;7.90;65.60;;;;;;5076123;28;19956;-62
2022/01/06 07:37:38;;;;;;;;;;;8.20;67.60;;;;;;5076178;28;19948;-62
2022/01/06 07:40:05;;;;;;;;;;;8.00;61.50;;;;;;5075935;28;20015;-62
2022/01/06 07:42:30;;;;;;;;;;;7.90;63.20;;;;;;5075195;28;19932;-56
2022/01/06 07:44:58;;;;;;;;;;;7.90;62.50;;;;;;5075988;28;20364;-63
2022/01/06 07:47:24;;;;;;;;;;;7.80;62.50;;;;;;5075928;28;19916;-66
2022/01/06 07:49:50;;;;;;;;;;;7.70;61.70;;;;;;5075788;28;20276;-60
2022/01/06 07:52:15;;;;;;;;;;;8.00;62.20;;;;;;5075824;28;20006;-57
2022/01/06 07:54:41;;;;;;;;;;;7.80;61.20;;;;;;5075815;28;19913;-60
2022/01/06 07:57:06;;;;;;;;;;;7.70;61.90;;;;;;5075828;28;20005;-65
2022/01/06 07:59:32;;;;;;;;;;;7.80;62.50;;;;;;5075003;28;20265;-65
2022/01/06 08:01:58;;;;;;;;;;;7.60;61.30;;;;;;5075476;28;19916;-71
2022/01/06 08:04:23;;;;;;;;;;;7.50;61.70;;;;;;5075353;28;20364;-61
2022/01/06 08:06:49;;;;;;;;;;;7.40;62.00;;;;;;5075558;28;19955;-62
2022/01/06 08:09:14;;;;;;;;;;;7.20;63.30;;;;;;5074964;28;19919;-60
2022/01/06 08:11:41;;;;;;;;;;;7.20;63.30;;;;;;5059939;28;19967;-64
2022/01/06 08:14:06;;;;;;;;;;;7.20;63.30;;;;;;5054869;28;20347;-64
2022/01/06 08:16:32;;;;;;;;;;;7.30;63.30;;;;;;5054618;28;19935;-59
2022/01/06 08:18:57;;;;;;;;;;;7.30;63.60;;;;;;5054726;28;20004;-61
2022/01/06 08:21:23;;;;;;;;;;;7.20;63.00;;;;;;5057337;28;19909;-63
2022/01/06 08:23:49;;;;;;;;;;;7.20;62.90;;;;;;5052920;28;19963;-64
2022/01/06 08:26:14;;;;;;;;;;;7.30;63.10;;;;;;5054631;28;20004;-64
2022/01/06 08:28:40;;;;;;;;;;;7.30;62.30;;;;;;5054073;28;19909;-60
2022/01/06 08:31:05;;;;;;;;;;;7.30;62.50;;;;;;5054261;28;19921;-63
2022/01/06 08:33:31;;;;;;;;;;;7.30;61.80;;;;;;5054272;28;20027;-61
2022/01/06 08:35:57;;;;;;;;;;;7.40;61.00;;;;;;5054446;28;20353;-59
2022/01/06 08:38:22;;;;;;;;;;;7.40;60.10;;;;;;5053974;28;20296;-60
2022/01/06 08:40:48;;;;;;;;;;;7.40;60.20;;;;;;5054427;28;19949;-62
2022/01/06 08:43:13;;;;;;;;;;;7.40;59.70;;;;;;5054214;28;20372;-66
2022/01/06 08:45:39;;;;;;;;;;;7.50;60.10;;;;;;5054122;28;19915;-58
2022/01/06 08:48:05;;;;;;;;;;;7.50;59.60;;;;;;5054125;28;19916;-60
2022/01/06 08:50:30;;;;;;;;;;;7.60;59.00;;;;;;5054758;28;20349;-62
2022/01/06 08:52:56;;;;;;;;;;;7.70;57.90;;;;;;5053893;28;20395;-58
2022/01/06 08:55:22;;;;;;;;;;;7.70;58.30;;;;;;5054038;28;19955;-64
2022/01/06 08:57:47;;;;;;;;;;;7.70;57.70;;;;;;5054117;28;19935;-61
2022/01/06 09:00:13;;;;;;;;;;;7.80;57.70;;;;;;5054031;28;19913;-66
2022/01/06 09:02:39;;;;;;;;;;;7.80;57.70;;;;;;5053782;28;19955;-62
2022/01/06 09:05:09;;;;;;;;;;;7.90;57.50;;;;;;5053887;28;19962;-61
2022/01/06 09:07:35;;;;;;;;;;;7.70;57.50;;;;;;5053835;28;19991;-59
2022/01/06 09:10:02;;;;;;;;;;;7.70;55.90;;;;;;5053813;28;20464;-56
2022/01/06 09:12:28;;;;;;;;;;;7.70;56.90;;;;;;5053816;28;19963;-59
2022/01/06 09:14:54;;;;;;;;;;;7.70;56.50;;;;;;5053653;28;19944;-62
2022/01/06 09:17:19;;;;;;;;;;;7.80;57.50;;;;;;5054057;28;20391;-68
2022/01/06 09:19:45;;;;;;;;;;;7.90;57.40;;;;;;5053868;28;20007;-55
2022/01/06 09:22:10;;;;;;;;;;;7.80;57.70;;;;;;5060383;28;20176;-58
2022/01/06 09:24:36;;;;;;;;;;;7.80;56.90;;;;;;5050811;28;19909;-58
2022/01/06 09:27:02;;;;;;;;;;;7.80;56.20;;;;;;5053382;28;19908;-63
2022/01/06 09:29:28;;;;;;;;;;;7.90;56.30;;;;;;5053207;28;19909;-62
2022/01/06 09:31:53;;;;;;;;;;;7.80;56.10;;;;;;5053260;28;19912;-62
2022/01/06 09:34:19;;;;;;;;;;;7.80;56.20;;;;;;5053569;28;19915;-59
2022/01/06 09:36:44;;;;;;;;;;;7.80;56.60;;;;;;5053353;28;19916;-57
2022/01/06 09:39:12;;;;;;;;;;;7.80;57.10;;;;;;5053028;28;20011;-57
2022/01/06 09:41:37;;;;;;;;;;;7.70;57.30;;;;;;5053307;28;19909;-57
2022/01/06 09:44:03;;;;;;;;;;;7.70;56.60;;;;;;5053459;28;20050;-59
2022/01/06 09:46:30;;;;;;;;;;;7.70;56.20;;;;;;5053638;28;20054;-60
2022/01/06 09:48:59;;;;;;;;;;;7.80;55.90;;;;;;5053723;28;19915;-57
2022/01/06 09:51:25;;;;;;;;;;;7.90;55.20;;;;;;5054667;28;19917;-61
2022/01/06 09:53:52;;;;;;;;;;;7.80;55.10;;;;;;5059555;28;20361;-56
2022/01/06 09:56:19;;;;;;;;;;;7.90;55.40;;;;;;5052815;28;19909;-57
2022/01/06 09:58:45;;;;;;;;;;;7.90;55.20;;;;;;5059441;28;19915;-58
2022/01/06 10:01:10;;;;;;;;;;;7.80;55.20;;;;;;5057235;28;19913;-56
2022/01/06 10:03:41;;;;;;;;;;;8.00;54.60;;;;;;5052716;28;19916;-58
2022/01/06 10:06:17;;;;;;;;;;;8.00;55.20;;;;;;5052507;28;20000;-56
2022/01/06 10:08:50;;;;;;;;;;;7.90;55.30;;;;;;5052664;28;19908;-59
2022/01/06 10:11:18;;;;;;;;;;;8.00;55.30;;;;;;5052430;28;19917;-56
2022/01/06 10:13:45;;;;;;;;;;;8.00;55.20;;;;;;5049978;28;19908;-56
2022/01/06 10:16:14;;;;;;;;;;;8.10;54.70;;;;;;5052638;28;19966;-60
2022/01/06 10:18:42;;;;;;;;;;;8.10;53.80;;;;;;5052562;28;19908;-56
2022/01/06 10:21:14;;;;;;;;;;;8.20;54.80;;;;;;5049915;28;20356;-58
2022/01/06 10:23:39;;;;;;;;;;;8.20;54.30;;;;;;5052461;28;20007;-56
2022/01/06 10:26:14;;;;;;;;;;;8.30;54.50;;;;;;5052343;28;19955;-56
2022/01/06 10:28:40;;;;;;;;;;;8.30;54.30;;;;;;5049845;28;19909;-59
2022/01/06 10:31:06;;;;;;;;;;;8.30;54.20;;;;;;5052293;28;19923;-54
2022/01/06 10:33:36;;;;;;;;;;;8.30;54.20;;;;;;5052516;28;19958;-58
2022/01/06 10:36:06;;;;;;;;;;;8.40;53.10;;;;;;5052570;28;19909;-57
2022/01/06 10:38:31;;;;;;;;;;;8.50;52.60;;;;;;5053034;28;20299;-59
2022/01/06 10:41:13;;;;;;;;;;;8.40;53.10;;;;;;5053111;28;19975;-59
2022/01/06 10:43:39;;;;;;;;;;;8.40;52.00;;;;;;5057573;28;19908;-56
2022/01/06 10:46:05;;;;;;;;;;;8.40;52.00;;;;;;5059278;28;20390;-56
2022/01/06 10:48:30;;;;;;;;;;;8.50;51.60;;;;;;5057109;28;20357;-57
2022/01/06 10:50:57;;;;;;;;;;;8.40;51.80;;;;;;5053608;28;19964;-56
2022/01/06 10:53:22;;;;;;;;;;;8.40;52.10;;;;;;5057018;28;19912;-57
2022/01/06 10:55:48;;;;;;;;;;;8.50;52.60;;;;;;5057376;28;19909;-56
2022/01/06 10:58:18;;;;;;;;;;;8.40;53.60;;;;;;5056554;28;19956;-61
2022/01/06 11:00:43;;;;;;;;;;;8.50;53.20;;;;;;5057005;28;19909;-60
2022/01/06 11:03:16;;;;;;;;;;;8.40;51.90;;;;;;5056947;28;19916;-63
2022/01/06 11:05:51;;;;;;;;;;;8.50;51.60;;;;;;5056764;28;20003;-63
2022/01/06 11:08:23;;;;;;;;;;;8.40;52.80;;;;;;5056830;28;19956;-62
2022/01/06 11:11:02;;;;;;;;;;;8.30;53.30;;;;;;5038655;28;20392;-63
2022/01/06 11:13:31;;;;;;;;;;;8.30;53.20;;;;;;5056683;28;19916;-60
2022/01/06 11:15:57;;;;;;;;;;;8.20;54.00;;;;;;5056928;28;19955;-65
2022/01/06 11:18:23;;;;;;;;;;;8.30;52.30;;;;;;5056966;28;20264;-65
2022/01/06 11:20:50;;;;;;;;;;;8.30;53.10;;;;;;5056490;28;19908;-63
2022/01/06 11:23:22;;;;;;;;;;;8.30;53.40;;;;;;5076751;28;20257;-62
2022/01/06 11:26:02;;;;;;;;;;;8.20;53.70;;;;;;5058433;28;20360;-63
2022/01/06 11:28:30;;;;;;;;;;;8.20;53.90;;;;;;5076461;28;19916;-64
2022/01/06 11:30:55;;;;;;;;;;;8.10;53.60;;;;;;5076385;28;20022;-62
2022/01/06 11:33:21;;;;;;;;;;;8.20;55.60;;;;;;5076610;28;19908;-63
2022/01/06 11:35:51;;;;;;;;;;;8.40;52.90;;;;;;5076133;28;19981;-61
2022/01/06 11:38:19;;;;;;;;;;;8.50;52.90;;;;;;5076120;28;19928;-62
2022/01/06 11:40:45;;;;;;;;;;;8.60;52.40;;;;;;5076184;28;19919;-68
2022/01/06 11:43:11;;;;;;;;;;;8.90;51.50;;;;;;5076044;28;19912;-66
2022/01/06 11:45:36;;;;;;;;;;;8.90;51.70;;;;;;5076142;28;19915;-65
2022/01/06 11:48:04;;;;;;;;;;;9.00;52.00;;;;;;5076150;28;19956;-58
2022/01/06 11:50:35;;;;;;;;;;;9.00;51.60;;;;;;5075942;28;19936;-62
2022/01/06 11:53:00;;;;;;;;;;;9.20;50.80;;;;;;5075900;28;19962;-60
2022/01/06 11:55:43;;;;;;;;;;;9.20;50.20;;;;;;5075785;28;19912;-61
2022/01/06 11:58:08;;;;;;;;;;;9.30;50.50;;;;;;5076018;28;19908;-58
2022/01/06 12:00:35;;;;;;;;;;;9.40;50.80;;;;;;5075877;28;20514;-64
2022/01/06 12:03:05;;;;;;;;;;;9.50;50.30;;;;;;5074874;28;19908;-67
2022/01/06 12:05:41;;;;;;;;;;;9.40;51.20;;;;;;5075616;28;19935;-67
2022/01/06 12:08:07;;;;;;;;;;;9.30;50.10;;;;;;5075611;28;19923;-68
2022/01/06 12:10:46;;;;;;;;;;;9.10;50.10;;;;;;5075507;28;19917;-65
2022/01/06 12:13:12;;;;;;;;;;;9.00;51.00;;;;;;5075427;28;19916;-62
2022/01/06 12:15:45;;;;;;;;;;;8.90;51.10;;;;;;5075527;28;19915;-70
2022/01/06 12:18:10;;;;;;;;;;;9.00;50.50;;;;;;5075549;28;19916;-70
2022/01/06 12:20:36;;;;;;;;;;;9.00;50.40;;;;;;5075371;28;19909;-61
2022/01/06 12:23:04;;;;;;;;;;;9.10;51.20;;;;;;5075333;28;19952;-61
2022/01/06 12:25:30;;;;;;;;;;;9.10;51.30;;;;;;5075460;28;19953;-64
2022/01/06 12:27:56;;;;;;;;;;;9.10;50.90;;;;;;5075194;28;19916;-62
2022/01/06 12:30:23;;;;;;;;;;;9.10;50.70;;;;;;5057161;28;19916;-61
2022/01/06 12:33:02;;;;;;;;;;;9.30;50.20;;;;;;5075344;28;19914;-64
2022/01/06 12:35:39;;;;;;;;;;;9.40;50.20;;;;;;5075380;28;20279;-63
2022/01/06 12:38:05;;;;;;;;;;;9.30;50.70;;;;;;5074847;28;19917;-59
2022/01/06 12:40:32;;;;;;;;;;;9.30;50.60;;;;;;5075086;28;20372;-58
2022/01/06 12:42:57;;;;;;;;;;;9.40;49.70;;;;;;5074923;28;19915;-57
2022/01/06 12:45:23;;;;;;;;;;;9.30;50.80;;;;;;5074726;28;19908;-60
2022/01/06 12:47:49;;;;;;;;;;;9.30;49.60;;;;;;5074986;28;19909;-56
2022/01/06 12:50:14;;;;;;;;;;;9.30;50.20;;;;;;5074955;28;19916;-60
2022/01/06 12:52:46;;;;;;;;;;;9.30;50.40;;;;;;5074705;28;19920;-67
2022/01/06 12:55:12;;;;;;;;;;;9.40;48.60;;;;;;5074354;28;19964;-60
2022/01/06 12:57:38;;;;;;;;;;;9.40;49.20;;;;;;5074594;28;19916;-57
2022/01/06 13:00:11;;;;;;;;;;;9.40;49.30;;;;;;5074454;28;19913;-55
2022/01/06 13:02:37;;;;;;;;;;;9.40;49.70;;;;;;5074593;28;19916;-56
2022/01/06 13:05:03;;;;;;;;;;;9.40;49.40;;;;;;5074538;28;19909;-54
2022/01/06 13:07:29;;;;;;;;;;;9.30;50.50;;;;;;5074420;28;20287;-58
2022/01/06 13:09:56;;;;;;;;;;;9.50;49.70;;;;;;5074321;28;19919;-54
2022/01/06 13:12:22;;;;;;;;;;;9.50;48.40;;;;;;5074571;28;19999;-57
2022/01/06 13:14:49;;;;;;;;;;;9.60;49.20;;;;;;5074114;28;20387;-55
2022/01/06 13:17:14;;;;;;;;;;;9.60;49.40;;;;;;5074328;28;20411;-56
2022/01/06 13:19:54;;;;;;;;;;;9.50;49.80;;;;;;5074373;28;19974;-58
2022/01/06 13:22:49;;;;;;;;;;;9.50;50.50;;;;;;5074544;28;20039;-55
2022/01/06 13:25:19;;;;;;;;;;;9.30;50.70;;;;;;5074025;28;19935;-54
2022/01/06 13:27:52;;;;;;;;;;;9.30;51.00;;;;;;5074252;28;19948;-70
2022/01/06 13:30:28;;;;;;;;;;;9.20;51.50;;;;;;5074223;28;19919;-66
2022/01/06 13:32:57;;;;;;;;;;;9.10;51.40;;;;;;5074128;28;19909;-55
2022/01/06 13:35:22;;;;;;;;;;;8.90;53.20;;;;;;5074080;28;19909;-55
2022/01/06 13:37:48;;;;;;;;;;;8.90;52.90;;;;;;5073837;28;20058;-55
2022/01/06 13:40:15;;;;;;;;;;;8.80;53.20;;;;;;5073809;28;20005;-54
2022/01/06 13:42:42;;;;;;;;;;;8.70;53.30;;;;;;5073778;28;19912;-55
2022/01/06 13:45:18;;;;;;;;;;;8.60;53.50;;;;;;5073754;28;19909;-60
2022/01/06 13:48:02;;;;;;;;;;;8.70;52.80;;;;;;5073914;28;19982;-57
2022/01/06 13:53:26;;;;;;;;;;;8.70;53.90;;;;;;5073874;28;19970;-59
2022/01/06 13:55:59;;;;;;;;;;;8.90;53.20;;;;;;5073711;28;19917;-58
2022/01/06 13:58:25;;;;;;;;;;;8.80;54.00;;;;;;5073390;28;19908;-56
2022/01/06 14:00:52;;;;;;;;;;;8.70;54.10;;;;;;5073710;28;20384;-60
2022/01/06 14:03:17;;;;;;;;;;;8.70;54.50;;;;;;5073638;28;19912;-60
2022/01/06 14:05:43;;;;;;;;;;;8.70;54.50;;;;;;5069831;28;19916;-57
2022/01/06 14:08:09;;;;;;;;;;;8.60;54.70;;;;;;5052751;28;19971;-57
2022/01/06 14:10:35;;;;;;;;;;;8.60;54.40;;;;;;5055608;28;19916;-57
2022/01/06 14:13:00;;;;;;;;;;;8.50;55.10;;;;;;5052626;28;19909;-56
2022/01/06 14:15:26;;;;;;;;;;;8.50;55.30;;;;;;5072921;28;19912;-57
2022/01/06 14:17:51;;;;;;;;;;;8.50;55.40;;;;;;5073361;28;19912;-56
2022/01/06 14:20:17;;;;;;;;;;;8.50;55.40;;;;;;5073474;28;19908;-55
2022/01/06 14:22:42;;;;;;;;;;;8.50;54.50;;;;;;5073308;28;19908;-60
2022/01/06 14:25:08;;;;;;;;;;;8.60;54.70;;;;;;5073170;28;19920;-56
2022/01/06 14:27:33;;;;;;;;;;;8.40;55.00;;;;;;5072667;28;19938;-58
2022/01/06 14:29:59;;;;;;;;;;;8.40;53.80;;;;;;5073168;28;19912;-56
2022/01/06 14:32:24;;;;;;;;;;;8.60;53.10;;;;;;5073356;28;19912;-55
2022/01/06 14:34:50;;;;;;;;;;;8.60;53.10;;;;;;5073210;28;20058;-56
2022/01/06 14:37:16;;;;;;;;;;;8.60;53.20;;;;;;5072905;28;20073;-56
2022/01/06 14:39:41;;;;;;;;;;;8.60;53.40;;;;;;5073285;28;20428;-56